Time;durP1;ratioP1;P1;durP2;ratioP2;P2;SDS_P1;SDS_P2;PMS_P1;PMS_P2;Temp;Humidity;BMP_temperature;BMP_pressure;BME280_temperature;BME280_humidity;BME280_pressure;Samples;Min_cycle;Max_cycle;Signal;HPM_P1;HPM_P2
2023/09/18 00:01:41;;;;;;;5.43;2.10;;;19.70;1.00;;;;;;5010072;28;20416;-85
2023/09/18 00:04:07;;;;;;;3.13;1.90;;;19.80;1.00;;;;;;5015545;28;20395;-85
2023/09/18 00:06:33;;;;;;;3.90;2.03;;;20.10;1.00;;;;;;5033235;28;20393;-85
2023/09/18 00:08:59;;;;;;;7.13;2.88;;;20.90;1.00;;;;;;5029822;28;20398;-86
2023/09/18 00:11:24;;;;;;;9.73;4.70;;;19.50;1.00;;;;;;5004317;28;20418;-83
2023/09/18 00:13:50;;;;;;;8.95;4.60;;;19.00;86.60;;;;;;4993585;28;20383;-85
2023/09/18 00:16:16;;;;;;;14.43;5.07;;;18.70;35.40;;;;;;4993826;28;20428;-85
2023/09/18 00:18:42;;;;;;;9.30;4.73;;;18.70;99.50;;;;;;5009877;28;20816;-85
2023/09/18 00:21:10;;;;;;;8.40;4.53;;;18.70;94.90;;;;;;5025968;28;20484;-86
2023/09/18 00:23:36;;;;;;;15.47;4.60;;;18.80;99.90;;;;;;5031730;28;20407;-85
2023/09/18 00:26:01;;;;;;;11.10;5.22;;;18.60;42.40;;;;;;5037016;28;20398;-85
2023/09/18 00:28:27;;;;;;;8.97;4.73;;;19.80;99.90;;;;;;5024971;28;20427;-85
2023/09/18 00:30:52;;;;;;;7.00;4.45;;;18.60;98.40;;;;;;5025578;28;20408;-85
2023/09/18 00:33:21;;;;;;;9.33;4.30;;;19.80;58.70;;;;;;5011302;28;20776;-85
2023/09/18 00:35:50;;;;;;;7.90;5.03;;;18.60;99.90;;;;;;5003332;28;20505;-85
2023/09/18 00:38:17;;;;;;;7.90;4.73;;;18.50;99.90;;;;;;4990483;28;20391;-86
2023/09/18 00:40:42;;;;;;;8.32;4.07;;;17.40;99.90;;;;;;4990059;28;20512;-86
2023/09/18 00:43:09;;;;;;;7.93;4.50;;;18.50;99.90;;;;;;4990090;28;20398;-86
2023/09/18 00:45:44;;;;;;;11.23;4.70;;;18.50;99.90;;;;;;4991028;28;20409;-86
2023/09/18 00:48:11;;;;;;;9.77;4.53;;;18.40;99.90;;;;;;5008783;28;20397;-86
2023/09/18 00:50:37;;;;;;;10.73;4.68;;;17.90;99.90;;;;;;5009928;28;20405;-86
2023/09/18 00:53:03;;;;;;;10.07;5.13;;;18.50;89.70;;;;;;4998309;28;20398;-86
2023/09/18 00:55:30;;;;;;;10.43;4.53;;;18.50;99.90;;;;;;4991027;28;20899;-86
2023/09/18 00:57:56;;;;;;;8.30;4.90;;;18.60;92.90;;;;;;4989601;28;20390;-86
2023/09/18 01:00:22;;;;;;;12.50;5.45;;;18.60;99.90;;;;;;4991133;28;20736;-86
2023/09/18 01:02:48;;;;;;;9.38;4.50;;;18.20;92.50;;;;;;4990162;28;20429;-86
2023/09/18 01:05:16;;;;;;;8.82;4.80;;;18.50;99.90;;;;;;5004141;28;20476;-86
2023/09/18 01:07:42;;;;;;;10.55;5.05;;;18.60;99.90;;;;;;4995194;28;20429;-87
2023/09/18 01:10:09;;;;;;;8.40;5.00;;;18.30;99.90;;;;;;4991134;28;20415;-88
2023/09/18 01:12:40;;;;;;;7.93;4.65;;;18.50;99.90;;;;;;4991293;28;20402;-86
2023/09/18 01:15:20;;;;;;;7.82;4.68;;;18.40;99.90;;;;;;5001287;28;20400;-87
2023/09/18 01:17:46;;;;;;;10.07;4.15;;;18.50;99.90;;;;;;5009498;28;20392;-87
2023/09/18 01:20:12;;;;;;;8.30;4.60;;;18.40;99.90;;;;;;5001967;28;20391;-87
2023/09/18 01:22:38;;;;;;;11.98;4.80;;;18.90;99.90;;;;;;4990727;28;20386;-86
2023/09/18 01:25:05;;;;;;;12.35;4.80;;;18.30;99.90;;;;;;5007861;28;20483;-86
2023/09/18 01:27:31;;;;;;;10.50;5.00;;;18.40;99.90;;;;;;5012817;28;20397;-85
2023/09/18 01:29:57;;;;;;;8.53;4.40;;;18.30;99.90;;;;;;5013198;28;20922;-86
2023/09/18 01:32:27;;;;;;;8.68;4.63;;;19.00;99.90;;;;;;5013441;28;20432;-86
2023/09/18 01:34:54;;;;;;;11.00;4.90;;;19.70;99.90;;;;;;4998347;28;20394;-86
2023/09/18 01:37:22;;;;;;;10.25;4.40;;;17.70;99.90;;;;;;4993517;28;20390;-86
2023/09/18 01:39:53;;;;;;;8.45;4.22;;;18.40;99.90;;;;;;4993486;28;20747;-86
2023/09/18 01:42:19;;;;;;;11.32;4.65;;;19.70;99.90;;;;;;4993202;28;20492;-85
2023/09/18 01:44:46;;;;;;;11.63;4.97;;;18.60;99.90;;;;;;4994238;28;20403;-85
2023/09/18 01:47:17;;;;;;;10.50;4.13;;;18.50;99.90;;;;;;4995250;28;20405;-86
2023/09/18 01:49:43;;;;;;;10.13;3.85;;;18.50;99.90;;;;;;4995813;28;20406;-85
2023/09/18 01:52:09;;;;;;;8.87;4.30;;;18.50;99.90;;;;;;5002585;28;20419;-86
2023/09/18 01:54:36;;;;;;;8.98;4.65;;;19.40;99.90;;;;;;5013332;28;20389;-85
2023/09/18 01:57:02;;;;;;;10.33;5.10;;;17.70;99.90;;;;;;5009884;28;20893;-85
2023/09/18 01:59:28;;;;;;;8.90;4.43;;;18.50;99.90;;;;;;4993731;28;20423;-85
2023/09/18 02:01:53;;;;;;;8.07;3.83;;;18.50;97.90;;;;;;4994899;28;20387;-85
2023/09/18 02:04:20;;;;;;;12.00;4.33;;;17.80;92.80;;;;;;5000727;28;20530;-85
2023/09/18 02:06:47;;;;;;;6.78;4.90;;;18.40;99.90;;;;;;5013350;28;20395;-85
2023/09/18 02:09:13;;;;;;;10.45;4.88;;;16.90;99.90;;;;;;5013072;28;20472;-85
2023/09/18 02:11:40;;;;;;;7.40;4.30;;;19.20;99.90;;;;;;5014382;28;20543;-85
2023/09/18 02:14:06;;;;;;;8.35;4.90;;;18.20;99.90;;;;;;5014926;28;20472;-84
2023/09/18 02:16:36;;;;;;;8.20;5.45;;;18.30;99.90;;;;;;5013376;28;20468;-85
2023/09/18 02:19:03;;;;;;;10.55;5.20;;;18.40;99.90;;;;;;4992742;28;20399;-84
2023/09/18 02:21:29;;;;;;;6.95;4.10;;;18.40;99.90;;;;;;5025060;28;20399;-85
2023/09/18 02:23:55;;;;;;;9.45;4.30;;;18.40;99.90;;;;;;5009573;28;20398;-85
2023/09/18 02:26:21;;;;;;;8.00;4.30;;;18.50;99.90;;;;;;4991942;28;20932;-85
2023/09/18 02:28:47;;;;;;;7.00;4.45;;;18.50;99.90;;;;;;5027623;23;20455;-84
2023/09/18 02:31:12;;;;;;;16.53;5.90;;;18.80;99.90;;;;;;5020604;28;20409;-83
2023/09/18 02:33:39;;;;;;;17.48;6.57;;;19.10;1.00;;;;;;5019314;28;20807;-84
2023/09/18 02:36:05;;;;;;;18.53;6.87;;;19.40;1.00;;;;;;5019896;28;20407;-82
2023/09/18 02:38:31;;;;;;;13.07;5.50;;;19.50;1.00;;;;;;5011460;28;20394;-84
2023/09/18 02:40:56;;;;;;;11.68;5.13;;;19.50;1.00;;;;;;4996995;28;20874;-84
2023/09/18 02:43:23;;;;;;;16.25;5.63;;;19.40;1.00;;;;;;4996720;28;20395;-85
2023/09/18 02:45:49;;;;;;;15.38;6.00;;;19.10;1.00;;;;;;4997366;28;20390;-82
2023/09/18 02:48:15;;;;;;;11.02;5.45;;;18.80;27.30;;;;;;4996760;28;20489;-81
2023/09/18 02:50:41;;;;;;;10.77;5.87;;;18.80;1.50;;;;;;4999058;28;20918;-82
2023/09/18 02:53:11;;;;;;;10.55;5.50;;;18.20;2.90;;;;;;4998589;28;20809;-82
2023/09/18 02:55:37;;;;;;;12.45;5.78;;;18.70;1.00;;;;;;4997322;28;20397;-81
2023/09/18 02:58:03;;;;;;;11.52;5.75;;;18.70;1.00;;;;;;4998150;28;20391;-84
2023/09/18 03:00:28;;;;;;;9.43;4.10;;;18.60;1.00;;;;;;4998875;28;20394;-83
2023/09/18 03:02:54;;;;;;;9.77;4.40;;;18.60;1.00;;;;;;4997579;28;20397;-84
2023/09/18 03:05:19;;;;;;;7.30;3.13;;;18.50;1.00;;;;;;4998401;28;20902;-83
2023/09/18 03:07:45;;;;;;;9.30;3.07;;;18.40;1.00;;;;;;4998878;28;20737;-85
2023/09/18 03:10:13;;;;;;;3.93;2.63;;;18.20;1.00;;;;;;4996946;28;20401;-84
2023/09/18 03:12:40;;;;;;;5.03;2.60;;;18.20;1.00;;;;;;4996213;28;20494;-85
2023/09/18 03:15:06;;;;;;;5.20;2.70;;;18.40;8.30;;;;;;4995885;28;20397;-84
2023/09/18 03:17:33;;;;;;;5.75;2.90;;;18.20;1.40;;;;;;4997297;28;20418;-84
2023/09/18 03:19:58;;;;;;;5.90;2.60;;;18.10;15.20;;;;;;4999647;28;20400;-85
2023/09/18 03:22:24;;;;;;;6.00;3.00;;;18.10;57.00;;;;;;5016865;28;20813;-84
2023/09/18 03:24:49;;;;;;;6.03;2.97;;;18.10;99.90;;;;;;5011259;28;20549;-84
2023/09/18 03:27:15;;;;;;;6.50;2.80;;;17.40;99.90;;;;;;4995028;28;20383;-85
2023/09/18 03:29:40;;;;;;;4.95;2.47;;;16.90;99.90;;;;;;4994552;28;20466;-84
2023/09/18 03:32:06;;;;;;;5.73;2.50;;;18.00;99.90;;;;;;4996929;28;20466;-84
2023/09/18 03:34:31;;;;;;;4.33;2.40;;;17.90;99.90;;;;;;4998690;28;20938;-83
2023/09/18 03:36:57;;;;;;;6.75;2.70;;;17.90;99.90;;;;;;4997274;28;20767;-84
2023/09/18 03:39:22;;;;;;;6.47;3.10;;;17.90;99.90;;;;;;4996638;28;20898;-84
2023/09/18 03:41:48;;;;;;;5.63;3.15;;;17.90;99.90;;;;;;4996621;28;20414;-84
2023/09/18 03:44:14;;;;;;;8.17;3.30;;;17.90;99.90;;;;;;4997293;28;20394;-84
2023/09/18 03:46:40;;;;;;;6.35;3.40;;;17.90;99.90;;;;;;4998060;28;20386;-84
2023/09/18 03:49:05;;;;;;;7.87;4.07;;;17.90;99.90;;;;;;4997746;28;20415;-84
2023/09/18 03:51:31;;;;;;;6.30;3.05;;;17.90;99.90;;;;;;4998013;28;20414;-85
2023/09/18 03:53:57;;;;;;;6.70;3.53;;;18.00;99.90;;;;;;4999483;28;20398;-85
2023/09/18 03:56:22;;;;;;;8.00;3.50;;;17.90;99.90;;;;;;4997146;28;21092;-84
2023/09/18 03:58:49;;;;;;;8.60;3.60;;;17.90;99.90;;;;;;4998501;28;20905;-85
2023/09/18 04:01:15;;;;;;;7.30;3.72;;;17.70;99.90;;;;;;4997180;28;20976;-85
2023/09/18 04:03:41;;;;;;;4.68;3.22;;;17.80;99.90;;;;;;4995203;28;20429;-85
2023/09/18 04:06:07;;;;;;;7.90;3.35;;;17.70;99.90;;;;;;4995474;28;20481;-85
2023/09/18 04:08:32;;;;;;;5.10;3.40;;;17.80;99.90;;;;;;4996610;28;20390;-85
2023/09/18 04:10:58;;;;;;;6.87;3.10;;;17.50;99.90;;;;;;4994522;28;20410;-86
2023/09/18 04:13:24;;;;;;;4.93;3.20;;;17.80;99.90;;;;;;4997359;28;20394;-85
2023/09/18 04:15:50;;;;;;;5.32;3.00;;;17.70;99.90;;;;;;4997121;28;20513;-85
2023/09/18 04:18:15;;;;;;;7.82;3.95;;;17.80;99.90;;;;;;5002371;28;20398;-86
2023/09/18 04:20:41;;;;;;;12.47;3.40;;;17.70;99.90;;;;;;5020494;28;20408;-85
2023/09/18 04:23:24;;;;;;;4.80;3.27;;;17.70;99.90;;;;;;5005225;28;20428;-86
2023/09/18 04:25:50;;;;;;;4.43;3.38;;;17.80;99.90;;;;;;4997551;28;20429;-86
2023/09/18 04:28:18;;;;;;;5.70;3.40;;;17.80;99.90;;;;;;4993956;28;20449;-86
2023/09/18 04:30:44;;;;;;;3.25;2.53;;;17.80;99.90;;;;;;4990493;28;20438;-87
2023/09/18 04:33:10;;;;;;;6.50;3.13;;;17.80;99.90;;;;;;4993198;28;20429;-87
2023/09/18 04:35:36;;;;;;;5.10;2.45;;;17.80;99.90;;;;;;4992814;28;20390;-87
2023/09/18 04:38:02;;;;;;;3.60;2.60;;;17.70;99.90;;;;;;4992096;28;20405;-86
2023/09/18 04:40:31;;;;;;;3.75;2.20;;;17.70;99.90;;;;;;4991952;28;20386;-85
2023/09/18 04:42:58;;;;;;;4.75;2.50;;;17.70;99.90;;;;;;4995606;28;20886;-84
2023/09/18 04:45:24;;;;;;;5.72;2.65;;;17.80;99.90;;;;;;4998988;28;20394;-85
2023/09/18 04:47:50;;;;;;;6.78;2.72;;;17.70;99.90;;;;;;4996457;28;20398;-85
2023/09/18 04:50:15;;;;;;;3.78;2.90;;;17.80;99.90;;;;;;4996215;28;20453;-85
2023/09/18 04:52:42;;;;;;;4.37;2.30;;;17.80;99.90;;;;;;4996368;28;20394;-85
2023/09/18 04:55:08;;;;;;;4.60;2.50;;;17.80;99.90;;;;;;5002037;28;20410;-85
2023/09/18 04:57:34;;;;;;;5.88;2.70;;;17.80;99.90;;;;;;5001977;28;20482;-85
2023/09/18 05:00:00;;;;;;;4.20;2.80;;;17.70;99.90;;;;;;4995370;28;20420;-84
2023/09/18 05:02:25;;;;;;;6.18;2.97;;;17.70;99.90;;;;;;4997081;28;20398;-85
2023/09/18 05:04:51;;;;;;;7.43;2.75;;;17.80;99.90;;;;;;5003684;28;20397;-85
2023/09/18 05:07:17;;;;;;;5.03;2.63;;;17.20;99.90;;;;;;5002387;28;20405;-86
2023/09/18 05:09:43;;;;;;;4.85;2.78;;;17.70;99.90;;;;;;5001542;28;20390;-86
2023/09/18 05:12:13;;;;;;;8.10;2.90;;;17.50;99.90;;;;;;5000965;28;20473;-86
2023/09/18 05:14:43;;;;;;;6.57;3.22;;;17.70;99.90;;;;;;5010353;28;20394;-86
2023/09/18 05:17:25;;;;;;;5.72;2.90;;;17.60;99.90;;;;;;5013890;28;20401;-89
2023/09/18 05:19:50;;;;;;;6.28;3.17;;;17.60;99.90;;;;;;5017121;28;20388;-85
2023/09/18 05:22:16;;;;;;;4.07;2.87;;;17.60;99.90;;;;;;5015028;28;20466;-85
2023/09/18 05:24:42;;;;;;;9.93;4.50;;;17.80;99.90;;;;;;5016525;28;20418;-86
2023/09/18 05:27:07;;;;;;;7.63;3.30;;;17.80;99.90;;;;;;5019282;28;20398;-85
2023/09/18 05:29:35;;;;;;;6.53;2.90;;;17.70;99.90;;;;;;5015663;28;20411;-85
2023/09/18 05:32:00;;;;;;;9.55;3.20;;;17.70;99.90;;;;;;4993393;28;20430;-86
2023/09/18 05:34:26;;;;;;;5.37;3.00;;;17.90;99.90;;;;;;4993503;28;20445;-86
2023/09/18 05:36:52;;;;;;;6.80;3.10;;;17.60;99.90;;;;;;4989328;28;21186;-85
2023/09/18 05:39:18;;;;;;;7.37;2.93;;;17.60;99.90;;;;;;4988456;28;20525;-86
2023/09/18 05:41:43;;;;;;;5.07;2.90;;;17.70;99.90;;;;;;4990419;28;20426;-86
2023/09/18 05:44:09;;;;;;;3.10;2.78;;;18.70;99.90;;;;;;4989942;28;20448;-85
2023/09/18 05:46:35;;;;;;;5.03;3.00;;;17.70;99.90;;;;;;4991812;28;20992;-85
2023/09/18 05:49:02;;;;;;;6.25;3.45;;;17.70;99.90;;;;;;4993407;28;20794;-85
2023/09/18 05:51:27;;;;;;;5.95;3.10;;;17.80;99.90;;;;;;4994294;28;20418;-86
2023/09/18 05:53:53;;;;;;;5.82;3.10;;;17.80;99.90;;;;;;4993675;28;20391;-86
2023/09/18 05:56:18;;;;;;;5.00;2.50;;;17.80;99.90;;;;;;4992344;28;20554;-85
2023/09/18 05:58:44;;;;;;;5.70;3.00;;;17.80;99.90;;;;;;4997068;28;20387;-84
2023/09/18 06:01:10;;;;;;;3.40;2.10;;;17.80;99.90;;;;;;4997036;28;20871;-84
2023/09/18 06:03:35;;;;;;;4.27;2.30;;;17.90;16.30;;;;;;5001265;28;20400;-83
2023/09/18 06:06:05;;;;;;;4.23;2.70;;;18.60;51.60;;;;;;5001291;28;20394;-84
2023/09/18 06:08:31;;;;;;;4.60;2.30;;;17.90;79.50;;;;;;4998602;28;20402;-84
2023/09/18 06:10:57;;;;;;;7.53;2.60;;;17.90;28.60;;;;;;4998993;28;20440;-84
2023/09/18 06:13:24;;;;;;;4.43;2.00;;;17.80;17.90;;;;;;4998840;28;20897;-84
2023/09/18 06:15:52;;;;;;;5.15;1.80;;;18.20;1.00;;;;;;4996373;28;20402;-84
2023/09/18 06:18:20;;;;;;;6.07;1.80;;;18.20;1.00;;;;;;5000240;28;20465;-84
2023/09/18 06:20:46;;;;;;;2.33;1.10;;;18.10;1.00;;;;;;4997709;28;20402;-83
2023/09/18 06:23:12;;;;;;;4.67;1.30;;;18.40;1.00;;;;;;4996682;28;20399;-83
2023/09/18 06:25:38;;;;;;;5.28;1.63;;;18.50;1.00;;;;;;4995180;28;20489;-83
2023/09/18 06:28:04;;;;;;;3.13;1.35;;;18.30;1.00;;;;;;4993018;28;20406;-81
2023/09/18 06:30:34;;;;;;;3.50;1.92;;;18.10;1.00;;;;;;4992851;28;20450;-82
2023/09/18 06:33:01;;;;;;;3.53;1.70;;;18.00;1.00;;;;;;4990054;28;20409;-81
2023/09/18 06:35:26;;;;;;;3.80;1.40;;;17.90;1.00;;;;;;4990391;28;20400;-83
2023/09/18 06:37:54;;;;;;;3.20;1.30;;;18.00;1.00;;;;;;4994813;28;20419;-82
2023/09/18 06:40:20;;;;;;;2.95;1.27;;;17.90;1.00;;;;;;4993848;28;20394;-82
2023/09/18 06:42:45;;;;;;;3.60;1.60;;;17.70;1.00;;;;;;4998105;28;20894;-83
2023/09/18 06:45:12;;;;;;;3.40;1.80;;;17.60;1.00;;;;;;4999116;28;20413;-82
2023/09/18 06:47:40;;;;;;;2.60;1.60;;;17.60;29.40;;;;;;4998982;28;20378;-83
2023/09/18 06:50:06;;;;;;;3.13;2.00;;;17.50;42.10;;;;;;4994560;28;20941;-83
2023/09/18 06:52:32;;;;;;;3.10;1.63;;;17.60;94.30;;;;;;4998702;28;20407;-81
2023/09/18 06:54:57;;;;;;;3.43;2.00;;;17.60;98.50;;;;;;5008795;28;20405;-80
2023/09/18 06:57:24;;;;;;;3.40;1.60;;;17.60;99.90;;;;;;5009472;28;20425;-80
2023/09/18 06:59:49;;;;;;;3.67;1.90;;;17.60;99.90;;;;;;5010192;28;20428;-80
2023/09/18 07:02:15;;;;;;;3.42;2.20;;;17.50;99.90;;;;;;5008372;28;20395;-82
2023/09/18 07:04:44;;;;;;;5.30;1.80;;;16.20;99.90;;;;;;5000978;28;20786;-82
2023/09/18 07:07:12;;;;;;;3.80;1.83;;;17.50;99.90;;;;;;4999624;28;20831;-80
2023/09/18 07:09:38;;;;;;;4.60;1.83;;;17.50;99.90;;;;;;5008582;28;20474;-82
2023/09/18 07:12:04;;;;;;;2.90;2.60;;;17.70;99.90;;;;;;5011119;28;20395;-81
2023/09/18 07:14:30;;;;;;;3.88;2.08;;;17.60;99.90;;;;;;5012172;28;20454;-82
2023/09/18 07:16:56;;;;;;;4.30;2.50;;;17.60;99.90;;;;;;5011363;28;20402;-80
2023/09/18 07:19:21;;;;;;;4.68;2.20;;;17.50;99.90;;;;;;5007694;28;20487;-83
2023/09/18 07:21:47;;;;;;;5.07;2.22;;;17.60;99.70;;;;;;5010496;28;20410;-83
2023/09/18 07:24:20;;;;;;;2.80;1.90;;;17.60;99.90;;;;;;4998813;28;20397;-83
2023/09/18 07:26:49;;;;;;;4.00;1.80;;;17.60;99.90;;;;;;5000109;28;20382;-83
2023/09/18 07:29:15;;;;;;;1.80;1.60;;;17.60;99.90;;;;;;5000523;28;20429;-82
2023/09/18 07:31:42;;;;;;;4.82;2.30;;;17.60;96.20;;;;;;4997558;28;20960;-82
2023/09/18 07:34:08;;;;;;;4.75;2.15;;;18.00;85.00;;;;;;5000094;28;20402;-83
2023/09/18 07:36:33;;;;;;;5.37;2.40;;;17.70;99.90;;;;;;4998821;28;20932;-83
2023/09/18 07:38:59;;;;;;;4.30;2.43;;;17.60;99.90;;;;;;5000285;28;20382;-83
2023/09/18 07:41:25;;;;;;;6.95;2.75;;;17.70;99.90;;;;;;4998966;28;20390;-82
2023/09/18 07:43:50;;;;;;;5.50;2.37;;;17.60;99.50;;;;;;4997221;28;20466;-83
2023/09/18 07:46:16;;;;;;;4.27;2.20;;;17.60;99.90;;;;;;4997647;28;20798;-83
2023/09/18 07:48:41;;;;;;;5.18;2.55;;;17.70;99.90;;;;;;4997646;28;20399;-83
2023/09/18 07:51:15;;;;;;;3.77;2.27;;;17.70;99.90;;;;;;4995101;28;20845;-82
2023/09/18 07:53:41;;;;;;;4.85;2.30;;;17.70;99.90;;;;;;4996742;28;20429;-83
2023/09/18 07:56:07;;;;;;;7.28;2.75;;;17.70;99.90;;;;;;4997635;28;20398;-83
2023/09/18 07:58:33;;;;;;;2.33;1.93;;;17.70;99.90;;;;;;4997889;28;20479;-83
2023/09/18 08:00:59;;;;;;;3.33;1.90;;;17.80;99.90;;;;;;4996058;28;20391;-83
2023/09/18 08:03:28;;;;;;;6.30;2.70;;;17.70;99.90;;;;;;4997400;28;20464;-83
2023/09/18 08:05:54;;;;;;;4.80;2.50;;;17.80;99.90;;;;;;4996803;28;20797;-83
2023/09/18 08:08:21;;;;;;;3.53;2.30;;;17.80;99.90;;;;;;4995694;28;20402;-83
2023/09/18 08:10:47;;;;;;;4.50;2.50;;;17.60;65.60;;;;;;4998003;28;20775;-81
2023/09/18 08:13:13;;;;;;;2.90;1.90;;;20.20;99.90;;;;;;4995493;28;20403;-83
2023/09/18 08:15:39;;;;;;;4.80;2.30;;;17.80;99.90;;;;;;4997553;28;20397;-83
2023/09/18 08:18:05;;;;;;;3.95;2.40;;;17.70;66.80;;;;;;4997115;28;20449;-83
2023/09/18 08:20:30;;;;;;;6.30;2.25;;;17.80;95.60;;;;;;5003464;28;20431;-81
2023/09/18 08:22:56;;;;;;;3.60;2.10;;;17.70;91.80;;;;;;5013430;28;20451;-83
2023/09/18 08:25:22;;;;;;;7.38;2.08;;;17.80;99.90;;;;;;5008314;28;20445;-83
2023/09/18 08:27:48;;;;;;;4.97;1.90;;;17.80;99.90;;;;;;4995097;28;20513;-82
2023/09/18 08:30:14;;;;;;;2.72;2.13;;;17.80;97.90;;;;;;4994992;28;20402;-82
2023/09/18 08:32:42;;;;;;;3.90;2.20;;;17.90;95.20;;;;;;4995675;28;20422;-83
2023/09/18 08:35:08;;;;;;;3.90;1.98;;;17.70;93.80;;;;;;4995237;28;20387;-83
2023/09/18 08:37:34;;;;;;;3.58;1.75;;;17.80;69.50;;;;;;4992681;28;20449;-82
2023/09/18 08:40:09;;;;;;;4.10;1.40;;;17.70;1.00;;;;;;4994381;28;20792;-83
2023/09/18 08:42:37;;;;;;;3.30;1.70;;;17.70;1.00;;;;;;4995147;28;20445;-83
2023/09/18 08:45:08;;;;;;;2.58;1.55;;;17.80;57.10;;;;;;4992049;28;20406;-83
2023/09/18 08:47:35;;;;;;;2.33;1.30;;;17.70;50.10;;;;;;4994763;28;20437;-82
2023/09/18 08:50:01;;;;;;;1.70;1.60;;;17.70;14.10;;;;;;4993651;28;20460;-82
2023/09/18 08:52:27;;;;;;;2.08;1.25;;;17.70;43.10;;;;;;4993270;28;20410;-83
2023/09/18 08:54:56;;;;;;;3.67;1.48;;;17.60;21.10;;;;;;4994639;28;20906;-83
2023/09/18 08:57:22;;;;;;;1.83;0.90;;;17.70;1.00;;;;;;4996237;28;20386;-83
2023/09/18 08:59:50;;;;;;;1.60;1.00;;;16.90;1.00;;;;;;4994450;28;20394;-83
2023/09/18 09:02:15;;;;;;;1.02;0.93;;;17.90;1.00;;;;;;4993731;28;20440;-81
2023/09/18 09:04:41;;;;;;;2.37;1.10;;;17.70;1.00;;;;;;4992655;28;20454;-82
2023/09/18 09:07:07;;;;;;;2.38;1.40;;;17.70;1.00;;;;;;4991954;28;20402;-81
2023/09/18 09:09:33;;;;;;;2.05;1.10;;;17.70;1.00;;;;;;4991254;28;20389;-81
2023/09/18 09:11:58;;;;;;;2.72;1.10;;;17.70;1.00;;;;;;4992768;28;20441;-81
2023/09/18 09:14:29;;;;;;;1.47;1.20;;;17.60;1.50;;;;;;4993216;28;20441;-82
2023/09/18 09:16:59;;;;;;;1.85;1.00;;;17.60;1.00;;;;;;4992608;28;20510;-84
2023/09/18 09:19:35;;;;;;;2.75;1.20;;;17.60;1.00;;;;;;4993408;28;20901;-83
2023/09/18 09:22:01;;;;;;;2.25;1.30;;;17.70;13.60;;;;;;4973794;28;20462;-83
2023/09/18 09:24:37;;;;;;;2.30;1.00;;;17.70;19.10;;;;;;4976050;28;20392;-82
2023/09/18 09:27:03;;;;;;;1.77;1.10;;;17.70;23.60;;;;;;4981534;28;20405;-83
2023/09/18 09:29:29;;;;;;;3.20;1.10;;;17.70;24.10;;;;;;4997056;28;20964;-82
2023/09/18 09:31:56;;;;;;;3.28;1.42;;;17.70;34.20;;;;;;4993144;28;20417;-83
2023/09/18 09:34:31;;;;;;;2.80;1.13;;;17.70;6.60;;;;;;4996954;28;20385;-83
2023/09/18 09:36:57;;;;;;;2.30;1.30;;;17.70;4.70;;;;;;4996038;28;20462;-82
2023/09/18 09:39:25;;;;;;;4.45;1.33;;;17.60;7.50;;;;;;4998667;28;20422;-82
2023/09/18 09:41:53;;;;;;;3.55;1.50;;;17.80;36.10;;;;;;4997699;28;20398;-84
2023/09/18 09:44:22;;;;;;;1.60;1.30;;;17.80;49.20;;;;;;4996798;28;20414;-83
2023/09/18 09:46:49;;;;;;;2.78;1.50;;;17.80;77.60;;;;;;4999498;28;20434;-83
2023/09/18 09:49:15;;;;;;;3.53;1.40;;;17.80;96.10;;;;;;5004013;28;20454;-82
2023/09/18 09:51:42;;;;;;;3.60;1.50;;;17.80;38.60;;;;;;5003078;28;20501;-82
2023/09/18 09:54:08;;;;;;;3.65;1.27;;;17.00;86.90;;;;;;5003334;28;20394;-83
2023/09/18 09:56:53;;;;;;;2.90;2.00;;;17.90;6.80;;;;;;5005800;28;20391;-83
2023/09/18 09:59:19;;;;;;;2.00;1.40;;;17.80;1.00;;;;;;5006945;28;20390;-82
2023/09/18 10:01:51;;;;;;;3.30;1.10;;;17.90;4.80;;;;;;5015995;28;20398;-81
2023/09/18 10:04:18;;;;;;;1.90;1.20;;;17.90;1.00;;;;;;5006952;28;20453;-82
2023/09/18 10:06:47;;;;;;;2.20;1.10;;;17.90;1.00;;;;;;5011063;28;20387;-81
2023/09/18 10:09:15;;;;;;;6.18;1.40;;;18.10;1.00;;;;;;5014381;28;20411;-81
2023/09/18 10:11:45;;;;;;;1.37;1.13;;;18.10;1.00;;;;;;5002645;28;20429;-84
2023/09/18 10:14:18;;;;;;;2.22;1.40;;;18.10;1.00;;;;;;4998677;28;20897;-82
2023/09/18 10:16:53;;;;;;;4.30;1.50;;;18.20;1.00;;;;;;4999879;28;20466;-83
2023/09/18 10:19:33;;;;;;;2.90;1.60;;;18.20;1.00;;;;;;5000226;28;20469;-82
2023/09/18 10:22:05;;;;;;;2.40;1.10;;;18.30;1.00;;;;;;4980188;28;20423;-83
2023/09/18 10:24:37;;;;;;;3.35;1.45;;;18.20;1.00;;;;;;4988305;28;20409;-83
2023/09/18 10:27:04;;;;;;;4.00;1.70;;;18.20;1.00;;;;;;4994805;28;20390;-84
2023/09/18 10:29:35;;;;;;;3.70;1.50;;;18.30;1.00;;;;;;4996494;28;20418;-83
2023/09/18 10:32:04;;;;;;;4.10;1.50;;;18.40;1.00;;;;;;4996943;28;20421;-85
2023/09/18 10:34:32;;;;;;;3.20;2.00;;;18.40;1.00;;;;;;4998228;28;20767;-84
2023/09/18 10:37:00;;;;;;;2.28;1.30;;;18.40;1.00;;;;;;4994410;28;20406;-83
2023/09/18 10:39:28;;;;;;;2.00;1.27;;;18.50;1.50;;;;;;4996047;28;20395;-84
2023/09/18 10:41:55;;;;;;;2.80;1.10;;;18.70;1.00;;;;;;4997272;28;20467;-84
2023/09/18 10:44:22;;;;;;;2.50;1.20;;;18.70;1.00;;;;;;4997292;28;20418;-85
2023/09/18 10:46:49;;;;;;;1.83;0.95;;;18.70;1.00;;;;;;4996777;28;20386;-84
2023/09/18 10:49:19;;;;;;;2.08;1.20;;;18.70;1.00;;;;;;4995674;28;20398;-84
2023/09/18 10:51:47;;;;;;;2.05;0.93;;;19.50;1.00;;;;;;4997754;28;20402;-84
2023/09/18 10:54:19;;;;;;;2.00;1.40;;;18.90;1.00;;;;;;4996791;28;20394;-83
2023/09/18 10:56:45;;;;;;;4.10;1.30;;;19.00;1.00;;;;;;4992689;28;20493;-85
2023/09/18 10:59:11;;;;;;;2.23;1.33;;;19.00;1.00;;;;;;4996082;28;20492;-84
2023/09/18 11:01:37;;;;;;;1.58;0.95;;;19.10;1.00;;;;;;4997039;28;20391;-85
2023/09/18 11:04:10;;;;;;;2.00;1.20;;;19.20;1.00;;;;;;4995575;28;20390;-84
2023/09/18 11:06:53;;;;;;;1.40;1.10;;;18.30;1.00;;;;;;4996191;28;20424;-85
2023/09/18 11:09:31;;;;;;;2.30;1.23;;;19.40;1.00;;;;;;4989054;28;20410;-84
2023/09/18 11:11:58;;;;;;;1.75;1.20;;;19.30;1.00;;;;;;4987069;28;20501;-83
2023/09/18 11:14:50;;;;;;;1.80;1.50;;;19.30;1.00;;;;;;4985874;28;20829;-83
2023/09/18 11:17:34;;;;;;;2.80;1.17;;;19.40;1.00;;;;;;4988985;28;20412;-84
2023/09/18 11:20:23;;;;;;;2.47;1.30;;;19.50;1.00;;;;;;4997578;28;20389;-84
2023/09/18 11:22:58;;;;;;;1.60;1.10;;;19.50;1.00;;;;;;5011878;28;20476;-85
2023/09/18 11:25:35;;;;;;;1.70;1.10;;;19.50;1.00;;;;;;4995419;28;20422;-82
2023/09/18 11:28:02;;;;;;;2.65;1.33;;;19.50;1.00;;;;;;4994869;28;20423;-82
2023/09/18 11:30:29;;;;;;;2.78;1.10;;;19.70;1.00;;;;;;4985594;28;20908;-83
2023/09/18 11:32:55;;;;;;;1.40;1.10;;;19.80;1.00;;;;;;4992862;28;20441;-84
2023/09/18 11:35:21;;;;;;;1.95;1.13;;;20.00;1.00;;;;;;4993271;28;20394;-84
2023/09/18 11:37:47;;;;;;;2.80;1.10;;;20.00;1.00;;;;;;4992694;28;20418;-84
2023/09/18 11:40:37;;;;;;;2.43;1.00;;;20.10;1.00;;;;;;4994599;28;20391;-83
2023/09/18 11:43:23;;;;;;;2.40;1.10;;;20.20;1.00;;;;;;4992621;28;20429;-84
2023/09/18 11:45:52;;;;;;;2.55;1.00;;;20.20;1.00;;;;;;4994079;28;20401;-84
2023/09/18 11:48:18;;;;;;;2.30;1.00;;;20.30;1.00;;;;;;4993132;28;20386;-84
2023/09/18 11:50:44;;;;;;;1.50;1.00;;;20.40;1.00;;;;;;4993843;28;20391;-84
2023/09/18 11:53:12;;;;;;;3.08;1.52;;;20.30;1.00;;;;;;4993786;28;20455;-85
2023/09/18 11:55:39;;;;;;;2.38;1.30;;;20.30;1.00;;;;;;4993626;28;20387;-85
2023/09/18 11:58:06;;;;;;;2.08;1.15;;;20.20;1.00;;;;;;4993163;28;20473;-83
2023/09/18 12:00:32;;;;;;;1.63;1.33;;;20.20;1.00;;;;;;4993078;28;20391;-84
2023/09/18 12:03:00;;;;;;;3.07;1.27;;;20.10;1.00;;;;;;4993005;28;20398;-84
2023/09/18 12:05:26;;;;;;;2.28;1.30;;;20.20;1.00;;;;;;4994291;28;20549;-84
2023/09/18 12:07:52;;;;;;;1.27;1.05;;;20.20;1.00;;;;;;4993205;28;20429;-84
2023/09/18 12:10:20;;;;;;;1.30;1.17;;;20.20;1.00;;;;;;4994360;28;20444;-84
2023/09/18 12:12:47;;;;;;;1.48;0.90;;;20.30;1.00;;;;;;4991908;28;20406;-85
2023/09/18 12:15:18;;;;;;;1.40;1.15;;;20.10;1.00;;;;;;4990233;28;20508;-83
2023/09/18 12:17:43;;;;;;;2.60;1.10;;;20.80;1.00;;;;;;4989374;28;20394;-84
2023/09/18 12:20:19;;;;;;;1.70;1.10;;;20.40;1.00;;;;;;4989191;28;20395;-83
2023/09/18 12:22:53;;;;;;;3.85;1.13;;;20.40;1.00;;;;;;4984075;28;20400;-84
2023/09/18 12:25:19;;;;;;;1.73;1.03;;;20.40;1.00;;;;;;4993675;28;20437;-84
2023/09/18 12:27:44;;;;;;;1.47;1.00;;;20.70;1.00;;;;;;4993772;28;20406;-85
2023/09/18 12:30:11;;;;;;;3.83;1.27;;;20.50;1.00;;;;;;4988353;28;20398;-84
2023/09/18 12:32:38;;;;;;;4.50;1.27;;;20.30;1.00;;;;;;4992772;28;20416;-84
2023/09/18 12:35:06;;;;;;;2.20;1.10;;;20.10;1.00;;;;;;4991171;28;20386;-83
2023/09/18 12:37:34;;;;;;;2.05;1.10;;;20.60;1.00;;;;;;4993482;28;20398;-83
2023/09/18 12:39:59;;;;;;;1.70;1.20;;;20.70;1.00;;;;;;4994161;28;20417;-83
2023/09/18 12:42:26;;;;;;;2.50;0.90;;;20.70;1.00;;;;;;4992771;28;20802;-84
2023/09/18 12:44:52;;;;;;;1.52;1.05;;;21.10;1.00;;;;;;4992665;28;20387;-84
2023/09/18 12:47:18;;;;;;;2.30;1.08;;;21.30;1.00;;;;;;4991590;28;20401;-84
2023/09/18 12:49:43;;;;;;;1.90;0.90;;;21.50;1.00;;;;;;4992262;28;20402;-82
2023/09/18 12:52:10;;;;;;;1.17;0.93;;;21.70;1.00;;;;;;4992379;28;20851;-84